Terminal Aerodrome Forecast
Issued by NWS

Home | Current Version | Previous Version | Graphics & Text | Print | Product List | Glossary On
Versions: 1 2 3 4 5 6 7 8 9 10 11 12 13 14 15 16 17 18
141
FTUS43 KMPX 160536
TAFRNH
TAF
KRNH 160536Z 1606/1706 13007KT P6SM BKN120 OVC200
     FM161000 10005KT P6SM VCSH OVC050
     FM161300 12007KT 5SM -SHRA BR OVC025
     FM161500 13009KT 5SM -SHRA BR OVC008
     FM161900 13009KT P6SM OVC015
     FM162300 16008KT 6SM BR VCSH BKN035
      TEMPO 1701/1705 3SM TSRA OVC030CB=

USA.gov is the U.S. government's official web portal to all federal, state and local government web resources and services.